sensor_id;sensor_type;location;lat;lon;timestamp;P1;durP1;ratioP1;P2;durP2;ratioP2
69841;SDS011;57138;51.326;-0.068;2023-07-31T00:00:10;27.65;;;6.80;;
69841;SDS011;57138;51.326;-0.068;2023-07-31T00:02:36;15.32;;;5.20;;
69841;SDS011;57138;51.326;-0.068;2023-07-31T00:05:02;20.23;;;5.57;;
69841;SDS011;57138;51.326;-0.068;2023-07-31T00:07:28;23.85;;;5.43;;
69841;SDS011;57138;51.326;-0.068;2023-07-31T00:09:53;24.90;;;6.28;;
69841;SDS011;57138;51.326;-0.068;2023-07-31T00:12:19;24.20;;;4.70;;
69841;SDS011;57138;51.326;-0.068;2023-07-31T00:14:45;0.10;;;0.10;;
69841;SDS011;57138;51.326;-0.068;2023-07-31T00:17:11;0.10;;;0.10;;
69841;SDS011;57138;51.326;-0.068;2023-07-31T00:19:36;0.10;;;0.10;;
69841;SDS011;57138;51.326;-0.068;2023-07-31T00:22:02;0.10;;;0.10;;
69841;SDS011;57138;51.326;-0.068;2023-07-31T00:24:27;0.10;;;0.10;;
69841;SDS011;57138;51.326;-0.068;2023-07-31T00:26:53;4.65;;;0.43;;
69841;SDS011;57138;51.326;-0.068;2023-07-31T00:29:18;0.10;;;0.10;;
69841;SDS011;57138;51.326;-0.068;2023-07-31T00:31:44;0.10;;;0.10;;
69841;SDS011;57138;51.326;-0.068;2023-07-31T00:34:09;0.10;;;0.10;;
69841;SDS011;57138;51.326;-0.068;2023-07-31T00:36:34;0.30;;;0.30;;
69841;SDS011;57138;51.326;-0.068;2023-07-31T00:39:00;0.17;;;0.17;;
69841;SDS011;57138;51.326;-0.068;2023-07-31T00:41:26;0.10;;;0.10;;
69841;SDS011;57138;51.326;-0.068;2023-07-31T00:43:51;0.10;;;0.10;;
69841;SDS011;57138;51.326;-0.068;2023-07-31T00:46:17;0.10;;;0.10;;
69841;SDS011;57138;51.326;-0.068;2023-07-31T00:48:42;0.10;;;0.10;;
69841;SDS011;57138;51.326;-0.068;2023-07-31T00:51:08;0.10;;;0.10;;
69841;SDS011;57138;51.326;-0.068;2023-07-31T00:53:35;0.10;;;0.10;;
69841;SDS011;57138;51.326;-0.068;2023-07-31T00:56:01;0.10;;;0.10;;
69841;SDS011;57138;51.326;-0.068;2023-07-31T00:58:27;0.10;;;0.10;;
69841;SDS011;57138;51.326;-0.068;2023-07-31T01:00:53;0.10;;;0.10;;
69841;SDS011;57138;51.326;-0.068;2023-07-31T01:03:18;0.20;;;0.20;;
69841;SDS011;57138;51.326;-0.068;2023-07-31T01:09:03;0.22;;;0.22;;
69841;SDS011;57138;51.326;-0.068;2023-07-31T01:11:34;0.10;;;0.10;;
69841;SDS011;57138;51.326;-0.068;2023-07-31T01:14:08;0.00;;;0.00;;
69841;SDS011;57138;51.326;-0.068;2023-07-31T01:16:34;0.10;;;0.10;;
69841;SDS011;57138;51.326;-0.068;2023-07-31T01:18:59;0.10;;;0.10;;
69841;SDS011;57138;51.326;-0.068;2023-07-31T01:24:13;0.20;;;0.20;;
69841;SDS011;57138;51.326;-0.068;2023-07-31T01:27:20;0.10;;;0.10;;
69841;SDS011;57138;51.326;-0.068;2023-07-31T01:32:25;0.10;;;0.10;;
69841;SDS011;57138;51.326;-0.068;2023-07-31T01:34:55;0.10;;;0.10;;
69841;SDS011;57138;51.326;-0.068;2023-07-31T01:37:29;0.10;;;0.10;;
69841;SDS011;57138;51.326;-0.068;2023-07-31T01:39:55;0.57;;;0.57;;
69841;SDS011;57138;51.326;-0.068;2023-07-31T01:42:20;0.10;;;0.10;;
69841;SDS011;57138;51.326;-0.068;2023-07-31T01:44:45;0.10;;;0.10;;
69841;SDS011;57138;51.326;-0.068;2023-07-31T01:47:11;0.10;;;0.10;;
69841;SDS011;57138;51.326;-0.068;2023-07-31T01:49:36;0.10;;;0.10;;
69841;SDS011;57138;51.326;-0.068;2023-07-31T01:52:02;0.10;;;0.10;;
69841;SDS011;57138;51.326;-0.068;2023-07-31T01:54:27;0.10;;;0.10;;
69841;SDS011;57138;51.326;-0.068;2023-07-31T01:56:53;0.10;;;0.10;;
69841;SDS011;57138;51.326;-0.068;2023-07-31T01:59:18;0.10;;;0.10;;
69841;SDS011;57138;51.326;-0.068;2023-07-31T02:01:43;0.10;;;0.10;;
69841;SDS011;57138;51.326;-0.068;2023-07-31T02:04:09;0.10;;;0.10;;
69841;SDS011;57138;51.326;-0.068;2023-07-31T02:06:34;0.10;;;0.10;;
69841;SDS011;57138;51.326;-0.068;2023-07-31T02:08:59;0.10;;;0.10;;
69841;SDS011;57138;51.326;-0.068;2023-07-31T02:11:25;0.13;;;0.13;;
69841;SDS011;57138;51.326;-0.068;2023-07-31T02:13:50;0.10;;;0.10;;
69841;SDS011;57138;51.326;-0.068;2023-07-31T02:16:16;0.10;;;0.10;;
69841;SDS011;57138;51.326;-0.068;2023-07-31T02:18:41;0.70;;;0.70;;
69841;SDS011;57138;51.326;-0.068;2023-07-31T02:21:06;0.10;;;0.10;;
69841;SDS011;57138;51.326;-0.068;2023-07-31T02:23:32;0.10;;;0.10;;
69841;SDS011;57138;51.326;-0.068;2023-07-31T02:25:57;0.10;;;0.10;;
69841;SDS011;57138;51.326;-0.068;2023-07-31T02:28:23;0.10;;;0.10;;
69841;SDS011;57138;51.326;-0.068;2023-07-31T02:30:50;0.20;;;0.20;;
69841;SDS011;57138;51.326;-0.068;2023-07-31T02:33:16;0.10;;;0.10;;
69841;SDS011;57138;51.326;-0.068;2023-07-31T02:35:41;0.20;;;0.20;;
69841;SDS011;57138;51.326;-0.068;2023-07-31T02:38:07;0.10;;;0.10;;
69841;SDS011;57138;51.326;-0.068;2023-07-31T02:40:32;0.10;;;0.10;;
69841;SDS011;57138;51.326;-0.068;2023-07-31T02:42:58;0.10;;;0.10;;
69841;SDS011;57138;51.326;-0.068;2023-07-31T02:45:23;0.10;;;0.10;;
69841;SDS011;57138;51.326;-0.068;2023-07-31T02:47:49;0.10;;;0.10;;
69841;SDS011;57138;51.326;-0.068;2023-07-31T02:50:14;1.23;;;1.17;;
69841;SDS011;57138;51.326;-0.068;2023-07-31T02:52:39;0.10;;;0.10;;
69841;SDS011;57138;51.326;-0.068;2023-07-31T02:55:05;0.10;;;0.10;;
69841;SDS011;57138;51.326;-0.068;2023-07-31T02:57:31;0.10;;;0.10;;
69841;SDS011;57138;51.326;-0.068;2023-07-31T02:59:56;0.10;;;0.10;;
69841;SDS011;57138;51.326;-0.068;2023-07-31T03:02:22;0.10;;;0.10;;
69841;SDS011;57138;51.326;-0.068;2023-07-31T03:04:47;0.10;;;0.10;;
69841;SDS011;57138;51.326;-0.068;2023-07-31T03:07:13;0.10;;;0.10;;
69841;SDS011;57138;51.326;-0.068;2023-07-31T03:09:38;0.10;;;0.10;;
69841;SDS011;57138;51.326;-0.068;2023-07-31T03:12:04;0.10;;;0.10;;
69841;SDS011;57138;51.326;-0.068;2023-07-31T03:14:29;0.10;;;0.10;;
69841;SDS011;57138;51.326;-0.068;2023-07-31T03:16:55;0.10;;;0.10;;
69841;SDS011;57138;51.326;-0.068;2023-07-31T03:19:20;0.10;;;0.10;;
69841;SDS011;57138;51.326;-0.068;2023-07-31T03:21:45;0.40;;;0.30;;
69841;SDS011;57138;51.326;-0.068;2023-07-31T03:24:11;0.20;;;0.20;;
69841;SDS011;57138;51.326;-0.068;2023-07-31T03:26:37;0.10;;;0.10;;
69841;SDS011;57138;51.326;-0.068;2023-07-31T03:29:03;0.10;;;0.10;;
69841;SDS011;57138;51.326;-0.068;2023-07-31T03:31:28;0.00;;;0.00;;
69841;SDS011;57138;51.326;-0.068;2023-07-31T03:33:54;0.10;;;0.10;;
69841;SDS011;57138;51.326;-0.068;2023-07-31T03:36:19;0.10;;;0.10;;
69841;SDS011;57138;51.326;-0.068;2023-07-31T03:38:45;0.10;;;0.10;;
69841;SDS011;57138;51.326;-0.068;2023-07-31T03:41:11;0.10;;;0.10;;
69841;SDS011;57138;51.326;-0.068;2023-07-31T03:43:38;0.10;;;0.10;;
69841;SDS011;57138;51.326;-0.068;2023-07-31T03:46:03;0.10;;;0.10;;
69841;SDS011;57138;51.326;-0.068;2023-07-31T03:48:28;0.10;;;0.10;;
69841;SDS011;57138;51.326;-0.068;2023-07-31T03:50:54;0.10;;;0.10;;
69841;SDS011;57138;51.326;-0.068;2023-07-31T03:53:20;0.10;;;0.10;;
69841;SDS011;57138;51.326;-0.068;2023-07-31T03:55:45;0.50;;;0.50;;
69841;SDS011;57138;51.326;-0.068;2023-07-31T03:58:11;0.10;;;0.10;;
69841;SDS011;57138;51.326;-0.068;2023-07-31T04:00:37;0.10;;;0.10;;
69841;SDS011;57138;51.326;-0.068;2023-07-31T04:03:02;0.10;;;0.10;;
69841;SDS011;57138;51.326;-0.068;2023-07-31T04:05:29;0.10;;;0.10;;
69841;SDS011;57138;51.326;-0.068;2023-07-31T04:07:55;0.10;;;0.10;;
69841;SDS011;57138;51.326;-0.068;2023-07-31T04:10:20;0.10;;;0.10;;
69841;SDS011;57138;51.326;-0.068;2023-07-31T04:12:46;0.10;;;0.10;;
69841;SDS011;57138;51.326;-0.068;2023-07-31T04:15:11;0.10;;;0.10;;
69841;SDS011;57138;51.326;-0.068;2023-07-31T04:17:36;0.10;;;0.10;;
69841;SDS011;57138;51.326;-0.068;2023-07-31T04:20:02;0.10;;;0.10;;
69841;SDS011;57138;51.326;-0.068;2023-07-31T04:22:28;0.10;;;0.10;;
69841;SDS011;57138;51.326;-0.068;2023-07-31T04:24:53;0.10;;;0.10;;
69841;SDS011;57138;51.326;-0.068;2023-07-31T04:27:19;0.10;;;0.10;;
69841;SDS011;57138;51.326;-0.068;2023-07-31T04:29:44;0.10;;;0.10;;
69841;SDS011;57138;51.326;-0.068;2023-07-31T04:32:11;0.10;;;0.10;;
69841;SDS011;57138;51.326;-0.068;2023-07-31T04:34:37;0.10;;;0.10;;
69841;SDS011;57138;51.326;-0.068;2023-07-31T04:37:02;0.10;;;0.10;;
69841;SDS011;57138;51.326;-0.068;2023-07-31T04:39:28;0.10;;;0.10;;
69841;SDS011;57138;51.326;-0.068;2023-07-31T04:41:53;0.10;;;0.10;;
69841;SDS011;57138;51.326;-0.068;2023-07-31T04:44:18;0.10;;;0.10;;
69841;SDS011;57138;51.326;-0.068;2023-07-31T04:46:44;0.10;;;0.10;;
69841;SDS011;57138;51.326;-0.068;2023-07-31T04:49:10;0.10;;;0.10;;
69841;SDS011;57138;51.326;-0.068;2023-07-31T04:51:35;0.10;;;0.10;;
69841;SDS011;57138;51.326;-0.068;2023-07-31T04:54:01;0.10;;;0.10;;
69841;SDS011;57138;51.326;-0.068;2023-07-31T04:56:26;0.03;;;0.03;;
69841;SDS011;57138;51.326;-0.068;2023-07-31T04:58:52;0.10;;;0.10;;
69841;SDS011;57138;51.326;-0.068;2023-07-31T05:01:17;0.10;;;0.10;;
69841;SDS011;57138;51.326;-0.068;2023-07-31T05:03:42;0.10;;;0.10;;
69841;SDS011;57138;51.326;-0.068;2023-07-31T05:06:09;0.10;;;0.10;;
69841;SDS011;57138;51.326;-0.068;2023-07-31T05:08:35;0.10;;;0.10;;
69841;SDS011;57138;51.326;-0.068;2023-07-31T05:11:00;0.10;;;0.10;;
69841;SDS011;57138;51.326;-0.068;2023-07-31T05:13:27;0.10;;;0.10;;
69841;SDS011;57138;51.326;-0.068;2023-07-31T05:15:52;0.10;;;0.10;;
69841;SDS011;57138;51.326;-0.068;2023-07-31T05:18:17;0.10;;;0.10;;
69841;SDS011;57138;51.326;-0.068;2023-07-31T05:20:43;0.10;;;0.10;;
69841;SDS011;57138;51.326;-0.068;2023-07-31T05:23:08;0.10;;;0.10;;
69841;SDS011;57138;51.326;-0.068;2023-07-31T05:25:34;0.00;;;0.00;;
69841;SDS011;57138;51.326;-0.068;2023-07-31T05:27:59;0.10;;;0.10;;
69841;SDS011;57138;51.326;-0.068;2023-07-31T05:30:25;0.10;;;0.10;;
69841;SDS011;57138;51.326;-0.068;2023-07-31T05:32:51;0.10;;;0.10;;
69841;SDS011;57138;51.326;-0.068;2023-07-31T05:35:17;0.10;;;0.10;;
69841;SDS011;57138;51.326;-0.068;2023-07-31T05:37:42;0.10;;;0.10;;
69841;SDS011;57138;51.326;-0.068;2023-07-31T05:40:08;0.10;;;0.10;;
69841;SDS011;57138;51.326;-0.068;2023-07-31T05:42:34;0.10;;;0.10;;
69841;SDS011;57138;51.326;-0.068;2023-07-31T05:45:00;0.10;;;0.10;;
69841;SDS011;57138;51.326;-0.068;2023-07-31T05:47:25;0.10;;;0.10;;
69841;SDS011;57138;51.326;-0.068;2023-07-31T05:49:51;0.10;;;0.10;;
69841;SDS011;57138;51.326;-0.068;2023-07-31T05:52:18;0.10;;;0.10;;
69841;SDS011;57138;51.326;-0.068;2023-07-31T05:54:44;0.10;;;0.10;;
69841;SDS011;57138;51.326;-0.068;2023-07-31T05:57:11;0.05;;;0.05;;
69841;SDS011;57138;51.326;-0.068;2023-07-31T05:59:36;0.10;;;0.10;;
69841;SDS011;57138;51.326;-0.068;2023-07-31T06:02:02;0.10;;;0.10;;
69841;SDS011;57138;51.326;-0.068;2023-07-31T06:04:27;0.10;;;0.10;;
69841;SDS011;57138;51.326;-0.068;2023-07-31T06:06:53;0.10;;;0.10;;
69841;SDS011;57138;51.326;-0.068;2023-07-31T06:09:18;0.10;;;0.10;;
69841;SDS011;57138;51.326;-0.068;2023-07-31T06:11:45;0.10;;;0.10;;
69841;SDS011;57138;51.326;-0.068;2023-07-31T06:14:11;0.10;;;0.10;;
69841;SDS011;57138;51.326;-0.068;2023-07-31T06:16:36;0.10;;;0.10;;
69841;SDS011;57138;51.326;-0.068;2023-07-31T06:19:02;0.10;;;0.10;;
69841;SDS011;57138;51.326;-0.068;2023-07-31T06:21:27;0.10;;;0.10;;
69841;SDS011;57138;51.326;-0.068;2023-07-31T06:23:53;0.10;;;0.10;;
69841;SDS011;57138;51.326;-0.068;2023-07-31T06:26:18;0.10;;;0.10;;
69841;SDS011;57138;51.326;-0.068;2023-07-31T06:28:44;0.10;;;0.10;;
69841;SDS011;57138;51.326;-0.068;2023-07-31T06:31:09;0.10;;;0.10;;
69841;SDS011;57138;51.326;-0.068;2023-07-31T06:33:35;0.10;;;0.10;;
69841;SDS011;57138;51.326;-0.068;2023-07-31T06:36:00;0.10;;;0.10;;
69841;SDS011;57138;51.326;-0.068;2023-07-31T06:38:26;0.10;;;0.10;;
69841;SDS011;57138;51.326;-0.068;2023-07-31T06:40:52;0.10;;;0.10;;
69841;SDS011;57138;51.326;-0.068;2023-07-31T06:43:18;0.10;;;0.10;;
69841;SDS011;57138;51.326;-0.068;2023-07-31T06:45:43;0.10;;;0.10;;
69841;SDS011;57138;51.326;-0.068;2023-07-31T06:48:09;0.10;;;0.10;;
69841;SDS011;57138;51.326;-0.068;2023-07-31T06:50:34;0.10;;;0.10;;
69841;SDS011;57138;51.326;-0.068;2023-07-31T06:53:00;0.10;;;0.10;;
69841;SDS011;57138;51.326;-0.068;2023-07-31T06:55:26;0.10;;;0.10;;
69841;SDS011;57138;51.326;-0.068;2023-07-31T06:57:52;0.10;;;0.10;;
69841;SDS011;57138;51.326;-0.068;2023-07-31T07:00:20;0.10;;;0.10;;
69841;SDS011;57138;51.326;-0.068;2023-07-31T07:02:47;0.10;;;0.10;;
69841;SDS011;57138;51.326;-0.068;2023-07-31T07:05:13;0.10;;;0.10;;
69841;SDS011;57138;51.326;-0.068;2023-07-31T07:07:39;0.10;;;0.10;;
69841;SDS011;57138;51.326;-0.068;2023-07-31T07:10:05;0.10;;;0.10;;
69841;SDS011;57138;51.326;-0.068;2023-07-31T07:12:31;0.10;;;0.10;;
69841;SDS011;57138;51.326;-0.068;2023-07-31T07:14:58;0.20;;;0.20;;
69841;SDS011;57138;51.326;-0.068;2023-07-31T07:17:25;0.10;;;0.10;;
69841;SDS011;57138;51.326;-0.068;2023-07-31T07:19:51;0.10;;;0.10;;
69841;SDS011;57138;51.326;-0.068;2023-07-31T07:22:18;0.15;;;0.15;;
69841;SDS011;57138;51.326;-0.068;2023-07-31T07:24:43;0.10;;;0.10;;
69841;SDS011;57138;51.326;-0.068;2023-07-31T07:27:12;0.10;;;0.10;;
69841;SDS011;57138;51.326;-0.068;2023-07-31T07:29:37;0.10;;;0.10;;
69841;SDS011;57138;51.326;-0.068;2023-07-31T07:32:03;0.52;;;0.45;;
69841;SDS011;57138;51.326;-0.068;2023-07-31T07:34:31;0.10;;;0.10;;
69841;SDS011;57138;51.326;-0.068;2023-07-31T07:36:56;0.13;;;0.13;;
69841;SDS011;57138;51.326;-0.068;2023-07-31T07:39:22;0.10;;;0.10;;
69841;SDS011;57138;51.326;-0.068;2023-07-31T07:41:47;0.10;;;0.10;;
69841;SDS011;57138;51.326;-0.068;2023-07-31T07:44:13;0.55;;;0.55;;
69841;SDS011;57138;51.326;-0.068;2023-07-31T07:46:39;0.20;;;0.20;;
69841;SDS011;57138;51.326;-0.068;2023-07-31T07:49:05;0.45;;;0.45;;
69841;SDS011;57138;51.326;-0.068;2023-07-31T07:51:30;0.10;;;0.10;;
69841;SDS011;57138;51.326;-0.068;2023-07-31T07:53:56;0.20;;;0.20;;
69841;SDS011;57138;51.326;-0.068;2023-07-31T07:56:25;0.10;;;0.10;;
69841;SDS011;57138;51.326;-0.068;2023-07-31T07:58:52;0.20;;;0.20;;
69841;SDS011;57138;51.326;-0.068;2023-07-31T08:01:17;0.28;;;0.28;;
69841;SDS011;57138;51.326;-0.068;2023-07-31T08:03:43;0.10;;;0.10;;
69841;SDS011;57138;51.326;-0.068;2023-07-31T08:06:08;0.17;;;0.17;;
69841;SDS011;57138;51.326;-0.068;2023-07-31T08:08:34;0.10;;;0.10;;
69841;SDS011;57138;51.326;-0.068;2023-07-31T08:11:00;0.10;;;0.10;;
69841;SDS011;57138;51.326;-0.068;2023-07-31T08:13:26;0.30;;;0.30;;
69841;SDS011;57138;51.326;-0.068;2023-07-31T08:15:51;0.30;;;0.30;;
69841;SDS011;57138;51.326;-0.068;2023-07-31T08:18:17;0.20;;;0.20;;
69841;SDS011;57138;51.326;-0.068;2023-07-31T08:20:43;0.10;;;0.10;;
69841;SDS011;57138;51.326;-0.068;2023-07-31T08:23:09;0.10;;;0.10;;
69841;SDS011;57138;51.326;-0.068;2023-07-31T08:25:35;0.10;;;0.10;;
69841;SDS011;57138;51.326;-0.068;2023-07-31T08:28:01;0.10;;;0.10;;
69841;SDS011;57138;51.326;-0.068;2023-07-31T08:30:31;0.10;;;0.10;;
69841;SDS011;57138;51.326;-0.068;2023-07-31T08:32:58;0.10;;;0.10;;
69841;SDS011;57138;51.326;-0.068;2023-07-31T08:35:24;0.17;;;0.17;;
69841;SDS011;57138;51.326;-0.068;2023-07-31T08:37:50;0.10;;;0.10;;
69841;SDS011;57138;51.326;-0.068;2023-07-31T08:40:16;0.13;;;0.13;;
69841;SDS011;57138;51.326;-0.068;2023-07-31T08:42:51;0.10;;;0.10;;
69841;SDS011;57138;51.326;-0.068;2023-07-31T08:45:19;0.10;;;0.10;;
69841;SDS011;57138;51.326;-0.068;2023-07-31T08:47:45;0.10;;;0.10;;
69841;SDS011;57138;51.326;-0.068;2023-07-31T08:50:13;0.10;;;0.10;;
69841;SDS011;57138;51.326;-0.068;2023-07-31T08:52:39;0.13;;;0.13;;
69841;SDS011;57138;51.326;-0.068;2023-07-31T08:55:05;0.10;;;0.10;;
69841;SDS011;57138;51.326;-0.068;2023-07-31T08:57:32;0.10;;;0.10;;
69841;SDS011;57138;51.326;-0.068;2023-07-31T09:00:00;0.10;;;0.10;;
69841;SDS011;57138;51.326;-0.068;2023-07-31T09:02:31;0.10;;;0.10;;
69841;SDS011;57138;51.326;-0.068;2023-07-31T09:05:19;0.10;;;0.10;;
69841;SDS011;57138;51.326;-0.068;2023-07-31T09:07:47;0.10;;;0.10;;
69841;SDS011;57138;51.326;-0.068;2023-07-31T09:10:14;0.10;;;0.10;;
69841;SDS011;57138;51.326;-0.068;2023-07-31T09:12:39;0.10;;;0.10;;
69841;SDS011;57138;51.326;-0.068;2023-07-31T09:15:05;0.35;;;0.35;;
69841;SDS011;57138;51.326;-0.068;2023-07-31T09:17:35;0.10;;;0.10;;
69841;SDS011;57138;51.326;-0.068;2023-07-31T09:20:18;0.10;;;0.10;;
69841;SDS011;57138;51.326;-0.068;2023-07-31T09:22:45;0.10;;;0.10;;
69841;SDS011;57138;51.326;-0.068;2023-07-31T09:25:18;0.10;;;0.10;;
69841;SDS011;57138;51.326;-0.068;2023-07-31T09:30:22;0.10;;;0.10;;
69841;SDS011;57138;51.326;-0.068;2023-07-31T09:32:48;0.10;;;0.10;;
69841;SDS011;57138;51.326;-0.068;2023-07-31T09:37:51;0.10;;;0.10;;
69841;SDS011;57138;51.326;-0.068;2023-07-31T09:40:27;0.10;;;0.10;;
69841;SDS011;57138;51.326;-0.068;2023-07-31T09:42:58;0.15;;;0.15;;
69841;SDS011;57138;51.326;-0.068;2023-07-31T09:45:28;0.10;;;0.10;;
69841;SDS011;57138;51.326;-0.068;2023-07-31T09:47:54;0.10;;;0.10;;
69841;SDS011;57138;51.326;-0.068;2023-07-31T09:50:21;0.15;;;0.15;;
69841;SDS011;57138;51.326;-0.068;2023-07-31T09:52:48;0.10;;;0.10;;
69841;SDS011;57138;51.326;-0.068;2023-07-31T09:55:13;0.10;;;0.10;;
69841;SDS011;57138;51.326;-0.068;2023-07-31T09:57:43;0.20;;;0.20;;
69841;SDS011;57138;51.326;-0.068;2023-07-31T10:00:11;0.10;;;0.10;;
69841;SDS011;57138;51.326;-0.068;2023-07-31T10:02:38;0.10;;;0.10;;
69841;SDS011;57138;51.326;-0.068;2023-07-31T10:05:05;0.13;;;0.13;;
69841;SDS011;57138;51.326;-0.068;2023-07-31T10:07:33;0.17;;;0.17;;
69841;SDS011;57138;51.326;-0.068;2023-07-31T10:10:03;0.10;;;0.10;;
69841;SDS011;57138;51.326;-0.068;2023-07-31T10:12:30;0.10;;;0.10;;
69841;SDS011;57138;51.326;-0.068;2023-07-31T10:14:58;0.10;;;0.10;;
69841;SDS011;57138;51.326;-0.068;2023-07-31T10:17:25;0.10;;;0.10;;
69841;SDS011;57138;51.326;-0.068;2023-07-31T10:19:52;0.10;;;0.10;;
69841;SDS011;57138;51.326;-0.068;2023-07-31T10:22:19;1.17;;;0.75;;
69841;SDS011;57138;51.326;-0.068;2023-07-31T10:24:45;0.10;;;0.10;;
69841;SDS011;57138;51.326;-0.068;2023-07-31T10:27:11;0.10;;;0.10;;
69841;SDS011;57138;51.326;-0.068;2023-07-31T10:29:37;0.10;;;0.10;;
69841;SDS011;57138;51.326;-0.068;2023-07-31T10:32:05;0.10;;;0.10;;
69841;SDS011;57138;51.326;-0.068;2023-07-31T10:34:35;0.10;;;0.10;;
69841;SDS011;57138;51.326;-0.068;2023-07-31T10:42:29;4.90;;;1.65;;
69841;SDS011;57138;51.326;-0.068;2023-07-31T10:45:00;6.50;;;2.38;;
69841;SDS011;57138;51.326;-0.068;2023-07-31T10:47:28;6.35;;;3.00;;
69841;SDS011;57138;51.326;-0.068;2023-07-31T10:50:10;4.65;;;1.40;;
69841;SDS011;57138;51.326;-0.068;2023-07-31T10:52:36;6.22;;;1.70;;
69841;SDS011;57138;51.326;-0.068;2023-07-31T10:57:49;6.00;;;1.60;;
69841;SDS011;57138;51.326;-0.068;2023-07-31T11:00:21;2.78;;;1.40;;
69841;SDS011;57138;51.326;-0.068;2023-07-31T11:03:00;6.03;;;1.80;;
69841;SDS011;57138;51.326;-0.068;2023-07-31T11:05:43;3.47;;;1.35;;
69841;SDS011;57138;51.326;-0.068;2023-07-31T11:10:42;9.25;;;1.60;;
69841;SDS011;57138;51.326;-0.068;2023-07-31T11:13:09;5.32;;;1.50;;
69841;SDS011;57138;51.326;-0.068;2023-07-31T11:15:35;4.97;;;1.40;;
69841;SDS011;57138;51.326;-0.068;2023-07-31T11:18:00;5.22;;;1.58;;
69841;SDS011;57138;51.326;-0.068;2023-07-31T11:20:32;3.55;;;1.30;;
69841;SDS011;57138;51.326;-0.068;2023-07-31T11:22:58;10.10;;;2.08;;
69841;SDS011;57138;51.326;-0.068;2023-07-31T11:25:30;5.53;;;1.55;;
69841;SDS011;57138;51.326;-0.068;2023-07-31T11:27:58;7.22;;;1.40;;
69841;SDS011;57138;51.326;-0.068;2023-07-31T11:30:37;4.30;;;1.33;;
69841;SDS011;57138;51.326;-0.068;2023-07-31T11:33:05;4.10;;;1.30;;
69841;SDS011;57138;51.326;-0.068;2023-07-31T11:35:32;3.55;;;1.35;;
69841;SDS011;57138;51.326;-0.068;2023-07-31T11:38:06;7.32;;;2.08;;
69841;SDS011;57138;51.326;-0.068;2023-07-31T11:40:40;7.40;;;1.90;;
69841;SDS011;57138;51.326;-0.068;2023-07-31T11:43:06;3.70;;;1.67;;
69841;SDS011;57138;51.326;-0.068;2023-07-31T11:45:32;4.85;;;1.60;;
69841;SDS011;57138;51.326;-0.068;2023-07-31T11:47:58;7.28;;;1.85;;
69841;SDS011;57138;51.326;-0.068;2023-07-31T11:50:23;7.40;;;1.42;;
69841;SDS011;57138;51.326;-0.068;2023-07-31T11:52:53;5.40;;;1.83;;
69841;SDS011;57138;51.326;-0.068;2023-07-31T11:55:25;8.35;;;2.20;;
69841;SDS011;57138;51.326;-0.068;2023-07-31T11:57:51;9.38;;;2.58;;
69841;SDS011;57138;51.326;-0.068;2023-07-31T12:00:19;7.47;;;2.17;;
69841;SDS011;57138;51.326;-0.068;2023-07-31T12:02:45;6.35;;;1.98;;
69841;SDS011;57138;51.326;-0.068;2023-07-31T12:05:13;3.92;;;2.08;;
69841;SDS011;57138;51.326;-0.068;2023-07-31T12:07:52;4.85;;;2.00;;
69841;SDS011;57138;51.326;-0.068;2023-07-31T12:10:37;4.90;;;1.90;;
69841;SDS011;57138;51.326;-0.068;2023-07-31T12:13:04;5.68;;;1.60;;
69841;SDS011;57138;51.326;-0.068;2023-07-31T12:16:04;7.55;;;1.83;;
69841;SDS011;57138;51.326;-0.068;2023-07-31T12:18:26;14.45;;;2.95;;
69841;SDS011;57138;51.326;-0.068;2023-07-31T12:20:56;4.97;;;2.03;;
69841;SDS011;57138;51.326;-0.068;2023-07-31T12:23:26;6.85;;;1.67;;
69841;SDS011;57138;51.326;-0.068;2023-07-31T12:26:00;6.88;;;2.03;;
69841;SDS011;57138;51.326;-0.068;2023-07-31T12:28:30;5.03;;;1.55;;
69841;SDS011;57138;51.326;-0.068;2023-07-31T12:30:59;4.40;;;1.77;;
69841;SDS011;57138;51.326;-0.068;2023-07-31T12:33:30;4.22;;;1.80;;
69841;SDS011;57138;51.326;-0.068;2023-07-31T12:35:58;5.78;;;2.33;;
69841;SDS011;57138;51.326;-0.068;2023-07-31T12:38:25;11.10;;;2.03;;
69841;SDS011;57138;51.326;-0.068;2023-07-31T12:40:51;7.60;;;2.05;;
69841;SDS011;57138;51.326;-0.068;2023-07-31T12:43:16;5.97;;;1.65;;
69841;SDS011;57138;51.326;-0.068;2023-07-31T12:45:43;3.45;;;1.50;;
69841;SDS011;57138;51.326;-0.068;2023-07-31T12:48:08;8.07;;;1.65;;
69841;SDS011;57138;51.326;-0.068;2023-07-31T12:50:34;7.88;;;1.70;;
69841;SDS011;57138;51.326;-0.068;2023-07-31T12:53:01;5.40;;;1.70;;
69841;SDS011;57138;51.326;-0.068;2023-07-31T12:55:28;6.47;;;2.22;;
69841;SDS011;57138;51.326;-0.068;2023-07-31T12:57:55;10.15;;;1.63;;
69841;SDS011;57138;51.326;-0.068;2023-07-31T13:00:20;6.15;;;1.63;;
69841;SDS011;57138;51.326;-0.068;2023-07-31T13:02:46;5.75;;;1.67;;
69841;SDS011;57138;51.326;-0.068;2023-07-31T13:05:12;8.90;;;2.00;;
69841;SDS011;57138;51.326;-0.068;2023-07-31T13:07:38;4.57;;;1.48;;
69841;SDS011;57138;51.326;-0.068;2023-07-31T13:10:04;9.45;;;2.55;;
69841;SDS011;57138;51.326;-0.068;2023-07-31T13:12:30;8.43;;;2.85;;
69841;SDS011;57138;51.326;-0.068;2023-07-31T13:14:55;10.93;;;2.75;;
69841;SDS011;57138;51.326;-0.068;2023-07-31T13:17:21;7.93;;;3.30;;
69841;SDS011;57138;51.326;-0.068;2023-07-31T13:19:46;9.05;;;2.92;;
69841;SDS011;57138;51.326;-0.068;2023-07-31T13:22:11;7.55;;;3.08;;
69841;SDS011;57138;51.326;-0.068;2023-07-31T13:24:37;13.73;;;3.33;;
69841;SDS011;57138;51.326;-0.068;2023-07-31T13:27:02;9.50;;;3.38;;
69841;SDS011;57138;51.326;-0.068;2023-07-31T13:29:28;13.57;;;3.58;;
69841;SDS011;57138;51.326;-0.068;2023-07-31T13:31:55;8.77;;;3.15;;
69841;SDS011;57138;51.326;-0.068;2023-07-31T13:34:20;15.35;;;3.47;;
69841;SDS011;57138;51.326;-0.068;2023-07-31T13:36:45;9.85;;;4.28;;
69841;SDS011;57138;51.326;-0.068;2023-07-31T13:39:11;13.88;;;3.85;;
69841;SDS011;57138;51.326;-0.068;2023-07-31T13:41:36;14.70;;;4.55;;
69841;SDS011;57138;51.326;-0.068;2023-07-31T13:44:02;8.93;;;3.05;;
69841;SDS011;57138;51.326;-0.068;2023-07-31T13:46:27;9.82;;;4.50;;
69841;SDS011;57138;51.326;-0.068;2023-07-31T13:48:53;12.68;;;4.15;;
69841;SDS011;57138;51.326;-0.068;2023-07-31T13:51:20;10.98;;;3.45;;
69841;SDS011;57138;51.326;-0.068;2023-07-31T13:53:46;11.25;;;3.95;;
69841;SDS011;57138;51.326;-0.068;2023-07-31T13:56:11;11.80;;;3.90;;
69841;SDS011;57138;51.326;-0.068;2023-07-31T13:58:36;10.23;;;4.38;;
69841;SDS011;57138;51.326;-0.068;2023-07-31T14:01:02;12.00;;;4.20;;
69841;SDS011;57138;51.326;-0.068;2023-07-31T14:03:28;9.60;;;4.40;;
69841;SDS011;57138;51.326;-0.068;2023-07-31T14:05:54;9.60;;;4.13;;
69841;SDS011;57138;51.326;-0.068;2023-07-31T14:08:20;11.35;;;4.15;;
69841;SDS011;57138;51.326;-0.068;2023-07-31T14:10:46;10.50;;;4.22;;
69841;SDS011;57138;51.326;-0.068;2023-07-31T14:13:13;14.18;;;4.72;;
69841;SDS011;57138;51.326;-0.068;2023-07-31T14:15:39;13.27;;;4.60;;
69841;SDS011;57138;51.326;-0.068;2023-07-31T14:18:06;11.98;;;4.38;;
69841;SDS011;57138;51.326;-0.068;2023-07-31T14:20:31;8.95;;;3.85;;
69841;SDS011;57138;51.326;-0.068;2023-07-31T14:22:57;12.48;;;4.43;;
69841;SDS011;57138;51.326;-0.068;2023-07-31T14:25:22;11.43;;;4.03;;
69841;SDS011;57138;51.326;-0.068;2023-07-31T14:27:48;10.73;;;4.05;;
69841;SDS011;57138;51.326;-0.068;2023-07-31T14:30:13;10.20;;;4.50;;
69841;SDS011;57138;51.326;-0.068;2023-07-31T14:32:38;13.05;;;3.70;;
69841;SDS011;57138;51.326;-0.068;2023-07-31T14:35:04;11.52;;;4.40;;
69841;SDS011;57138;51.326;-0.068;2023-07-31T14:37:39;12.95;;;4.30;;
69841;SDS011;57138;51.326;-0.068;2023-07-31T14:40:07;13.52;;;5.03;;
69841;SDS011;57138;51.326;-0.068;2023-07-31T14:42:33;12.00;;;4.45;;
69841;SDS011;57138;51.326;-0.068;2023-07-31T14:44:59;12.77;;;3.75;;
69841;SDS011;57138;51.326;-0.068;2023-07-31T14:47:24;10.98;;;4.15;;
69841;SDS011;57138;51.326;-0.068;2023-07-31T14:49:50;9.02;;;4.15;;
69841;SDS011;57138;51.326;-0.068;2023-07-31T14:52:15;13.77;;;4.68;;
69841;SDS011;57138;51.326;-0.068;2023-07-31T14:54:40;19.35;;;5.68;;